sensor_id;sensor_type;location;lat;lon;timestamp;pressure;altitude;pressure_sealevel;temperature;humidity
7930;BME280;4010;42.698;23.124;2023-10-19T00:00:30;118349.16;;;-140.64;100.00
7930;BME280;4010;42.698;23.124;2023-10-19T00:02:59;118349.16;;;-140.64;100.00
7930;BME280;4010;42.698;23.124;2023-10-19T00:05:28;118349.16;;;-140.64;100.00
7930;BME280;4010;42.698;23.124;2023-10-19T00:07:56;118349.16;;;-140.64;100.00
7930;BME280;4010;42.698;23.124;2023-10-19T00:10:22;118349.16;;;-140.64;100.00
7930;BME280;4010;42.698;23.124;2023-10-19T00:12:51;118349.16;;;-140.64;100.00
7930;BME280;4010;42.698;23.124;2023-10-19T00:15:25;118349.16;;;-140.64;100.00
7930;BME280;4010;42.698;23.124;2023-10-19T00:17:56;118349.16;;;-140.64;100.00
7930;BME280;4010;42.698;23.124;2023-10-19T00:20:22;118349.16;;;-140.64;100.00
7930;BME280;4010;42.698;23.124;2023-10-19T00:23:03;118349.16;;;-140.64;100.00
7930;BME280;4010;42.698;23.124;2023-10-19T00:25:31;118349.16;;;-140.64;100.00
7930;BME280;4010;42.698;23.124;2023-10-19T00:28:00;118349.16;;;-140.64;100.00
7930;BME280;4010;42.698;23.124;2023-10-19T00:30:26;118349.16;;;-140.64;100.00
7930;BME280;4010;42.698;23.124;2023-10-19T00:32:56;118349.16;;;-140.64;100.00
7930;BME280;4010;42.698;23.124;2023-10-19T00:35:28;118349.16;;;-140.64;100.00
7930;BME280;4010;42.698;23.124;2023-10-19T00:37:59;118349.16;;;-140.64;100.00
7930;BME280;4010;42.698;23.124;2023-10-19T00:40:51;118349.16;;;-140.64;100.00
7930;BME280;4010;42.698;23.124;2023-10-19T00:43:27;118349.16;;;-140.64;100.00
7930;BME280;4010;42.698;23.124;2023-10-19T00:45:59;118349.16;;;-140.64;100.00
7930;BME280;4010;42.698;23.124;2023-10-19T00:48:29;118349.16;;;-140.64;100.00
7930;BME280;4010;42.698;23.124;2023-10-19T00:50:58;118349.16;;;-140.64;100.00
7930;BME280;4010;42.698;23.124;2023-10-19T00:53:35;118349.16;;;-140.64;100.00
7930;BME280;4010;42.698;23.124;2023-10-19T00:56:08;118349.16;;;-140.64;100.00
7930;BME280;4010;42.698;23.124;2023-10-19T00:58:37;118349.16;;;-140.64;100.00
7930;BME280;4010;42.698;23.124;2023-10-19T01:01:06;118349.16;;;-140.64;100.00
7930;BME280;4010;42.698;23.124;2023-10-19T01:03:34;118349.16;;;-140.64;100.00
7930;BME280;4010;42.698;23.124;2023-10-19T01:06:04;118349.16;;;-140.64;100.00
7930;BME280;4010;42.698;23.124;2023-10-19T01:08:36;118349.16;;;-140.64;100.00
7930;BME280;4010;42.698;23.124;2023-10-19T01:11:11;118349.16;;;-140.64;100.00
7930;BME280;4010;42.698;23.124;2023-10-19T01:13:40;118349.16;;;-140.64;100.00
7930;BME280;4010;42.698;23.124;2023-10-19T01:16:12;118349.16;;;-140.64;100.00
7930;BME280;4010;42.698;23.124;2023-10-19T01:18:46;118349.16;;;-140.64;100.00
7930;BME280;4010;42.698;23.124;2023-10-19T01:21:13;118349.16;;;-140.64;100.00
7930;BME280;4010;42.698;23.124;2023-10-19T01:23:46;118349.16;;;-140.64;100.00
7930;BME280;4010;42.698;23.124;2023-10-19T01:26:13;118349.16;;;-140.64;100.00
7930;BME280;4010;42.698;23.124;2023-10-19T01:28:44;118349.16;;;-140.64;100.00
7930;BME280;4010;42.698;23.124;2023-10-19T01:31:14;118349.16;;;-140.64;100.00
7930;BME280;4010;42.698;23.124;2023-10-19T01:33:42;118349.16;;;-140.64;100.00
7930;BME280;4010;42.698;23.124;2023-10-19T01:36:09;118349.16;;;-140.64;100.00
7930;BME280;4010;42.698;23.124;2023-10-19T01:38:51;118349.16;;;-140.64;100.00
7930;BME280;4010;42.698;23.124;2023-10-19T01:41:19;118349.16;;;-140.64;100.00
7930;BME280;4010;42.698;23.124;2023-10-19T01:43:47;118349.16;;;-140.64;100.00
7930;BME280;4010;42.698;23.124;2023-10-19T01:46:14;118349.16;;;-140.64;100.00
7930;BME280;4010;42.698;23.124;2023-10-19T01:48:48;118349.16;;;-140.64;100.00
7930;BME280;4010;42.698;23.124;2023-10-19T01:51:15;118349.16;;;-140.64;100.00
7930;BME280;4010;42.698;23.124;2023-10-19T01:53:42;118349.16;;;-140.64;100.00
7930;BME280;4010;42.698;23.124;2023-10-19T01:56:10;118349.16;;;-140.64;100.00
7930;BME280;4010;42.698;23.124;2023-10-19T01:58:38;118349.16;;;-140.64;100.00
7930;BME280;4010;42.698;23.124;2023-10-19T02:01:05;118349.16;;;-140.64;100.00
7930;BME280;4010;42.698;23.124;2023-10-19T02:03:41;118349.16;;;-140.64;100.00
7930;BME280;4010;42.698;23.124;2023-10-19T02:06:08;118349.16;;;-140.64;100.00
7930;BME280;4010;42.698;23.124;2023-10-19T02:08:45;118349.16;;;-140.64;100.00
7930;BME280;4010;42.698;23.124;2023-10-19T02:11:12;118349.16;;;-140.64;100.00
7930;BME280;4010;42.698;23.124;2023-10-19T02:13:44;118349.16;;;-140.64;100.00
7930;BME280;4010;42.698;23.124;2023-10-19T02:16:12;118349.16;;;-140.64;100.00
7930;BME280;4010;42.698;23.124;2023-10-19T02:18:40;118349.16;;;-140.64;100.00
7930;BME280;4010;42.698;23.124;2023-10-19T02:21:07;118349.16;;;-140.64;100.00
7930;BME280;4010;42.698;23.124;2023-10-19T02:23:33;118349.16;;;-140.64;100.00
7930;BME280;4010;42.698;23.124;2023-10-19T02:26:01;118349.16;;;-140.64;100.00
7930;BME280;4010;42.698;23.124;2023-10-19T02:28:30;118349.16;;;-140.64;100.00
7930;BME280;4010;42.698;23.124;2023-10-19T02:30:58;118349.16;;;-140.64;100.00
7930;BME280;4010;42.698;23.124;2023-10-19T02:33:37;118349.16;;;-140.64;100.00
7930;BME280;4010;42.698;23.124;2023-10-19T02:36:04;118349.16;;;-140.64;100.00
7930;BME280;4010;42.698;23.124;2023-10-19T02:38:30;118349.16;;;-140.64;100.00
7930;BME280;4010;42.698;23.124;2023-10-19T02:40:58;118349.16;;;-140.64;100.00
7930;BME280;4010;42.698;23.124;2023-10-19T02:43:24;118349.16;;;-140.64;100.00
7930;BME280;4010;42.698;23.124;2023-10-19T02:45:52;118349.16;;;-140.64;100.00
7930;BME280;4010;42.698;23.124;2023-10-19T02:48:18;118349.16;;;-140.64;100.00
7930;BME280;4010;42.698;23.124;2023-10-19T02:50:45;118349.16;;;-140.64;100.00
7930;BME280;4010;42.698;23.124;2023-10-19T02:53:12;118349.16;;;-140.64;100.00
7930;BME280;4010;42.698;23.124;2023-10-19T02:55:39;118349.16;;;-140.64;100.00
7930;BME280;4010;42.698;23.124;2023-10-19T02:58:06;118349.16;;;-140.64;100.00
7930;BME280;4010;42.698;23.124;2023-10-19T03:00:32;118349.16;;;-140.64;100.00
7930;BME280;4010;42.698;23.124;2023-10-19T03:03:01;118349.16;;;-140.64;100.00
7930;BME280;4010;42.698;23.124;2023-10-19T03:05:30;118349.16;;;-140.64;100.00
7930;BME280;4010;42.698;23.124;2023-10-19T03:07:56;118349.16;;;-140.64;100.00
7930;BME280;4010;42.698;23.124;2023-10-19T03:10:23;118349.16;;;-140.64;100.00
7930;BME280;4010;42.698;23.124;2023-10-19T03:12:59;118349.16;;;-140.64;100.00
7930;BME280;4010;42.698;23.124;2023-10-19T03:15:26;118349.16;;;-140.64;100.00
7930;BME280;4010;42.698;23.124;2023-10-19T03:17:55;118349.16;;;-140.64;100.00
7930;BME280;4010;42.698;23.124;2023-10-19T03:20:23;118349.16;;;-140.64;100.00
7930;BME280;4010;42.698;23.124;2023-10-19T03:22:51;118349.16;;;-140.64;100.00
7930;BME280;4010;42.698;23.124;2023-10-19T03:25:18;118349.16;;;-140.64;100.00
7930;BME280;4010;42.698;23.124;2023-10-19T03:28:02;118349.16;;;-140.64;100.00
7930;BME280;4010;42.698;23.124;2023-10-19T03:30:35;118349.16;;;-140.64;100.00
7930;BME280;4010;42.698;23.124;2023-10-19T03:33:05;118349.16;;;-140.64;100.00
7930;BME280;4010;42.698;23.124;2023-10-19T03:35:36;118349.16;;;-140.64;100.00
7930;BME280;4010;42.698;23.124;2023-10-19T03:38:03;118349.16;;;-140.64;100.00
7930;BME280;4010;42.698;23.124;2023-10-19T03:40:34;118349.16;;;-140.64;100.00
7930;BME280;4010;42.698;23.124;2023-10-19T03:43:04;118349.16;;;-140.64;100.00
7930;BME280;4010;42.698;23.124;2023-10-19T03:45:43;118349.16;;;-140.64;100.00
7930;BME280;4010;42.698;23.124;2023-10-19T03:48:17;118349.16;;;-140.64;100.00
7930;BME280;4010;42.698;23.124;2023-10-19T03:50:51;118349.16;;;-140.64;100.00
7930;BME280;4010;42.698;23.124;2023-10-19T03:53:18;118349.16;;;-140.64;100.00
7930;BME280;4010;42.698;23.124;2023-10-19T03:55:46;118349.16;;;-140.64;100.00
7930;BME280;4010;42.698;23.124;2023-10-19T03:58:15;118349.16;;;-140.64;100.00
7930;BME280;4010;42.698;23.124;2023-10-19T04:00:42;118349.16;;;-140.64;100.00
7930;BME280;4010;42.698;23.124;2023-10-19T04:03:09;118349.16;;;-140.64;100.00
7930;BME280;4010;42.698;23.124;2023-10-19T04:05:37;118349.16;;;-140.64;100.00
7930;BME280;4010;42.698;23.124;2023-10-19T04:08:06;118349.16;;;-140.64;100.00
7930;BME280;4010;42.698;23.124;2023-10-19T04:10:38;118349.16;;;-140.64;100.00
7930;BME280;4010;42.698;23.124;2023-10-19T04:13:10;118349.16;;;-140.64;100.00
7930;BME280;4010;42.698;23.124;2023-10-19T04:15:37;118349.16;;;-140.64;100.00
7930;BME280;4010;42.698;23.124;2023-10-19T04:18:05;118349.16;;;-140.64;100.00
7930;BME280;4010;42.698;23.124;2023-10-19T04:20:37;118349.16;;;-140.64;100.00
7930;BME280;4010;42.698;23.124;2023-10-19T04:23:22;118349.16;;;-140.64;100.00
7930;BME280;4010;42.698;23.124;2023-10-19T04:25:52;118349.16;;;-140.64;100.00
7930;BME280;4010;42.698;23.124;2023-10-19T04:28:21;118349.16;;;-140.64;100.00
7930;BME280;4010;42.698;23.124;2023-10-19T04:30:56;118349.16;;;-140.64;100.00
7930;BME280;4010;42.698;23.124;2023-10-19T04:33:25;118349.16;;;-140.64;100.00
7930;BME280;4010;42.698;23.124;2023-10-19T04:35:53;118349.16;;;-140.64;100.00
7930;BME280;4010;42.698;23.124;2023-10-19T04:38:23;118349.16;;;-140.64;100.00
7930;BME280;4010;42.698;23.124;2023-10-19T04:40:49;118349.16;;;-140.64;100.00
7930;BME280;4010;42.698;23.124;2023-10-19T04:43:16;118349.16;;;-140.64;100.00
7930;BME280;4010;42.698;23.124;2023-10-19T04:45:43;118349.16;;;-140.64;100.00
7930;BME280;4010;42.698;23.124;2023-10-19T04:48:10;118349.16;;;-140.64;100.00
7930;BME280;4010;42.698;23.124;2023-10-19T04:50:37;118349.16;;;-140.64;100.00
7930;BME280;4010;42.698;23.124;2023-10-19T04:53:05;118349.16;;;-140.64;100.00
7930;BME280;4010;42.698;23.124;2023-10-19T04:55:33;118349.16;;;-140.64;100.00
7930;BME280;4010;42.698;23.124;2023-10-19T04:58:00;118349.16;;;-140.64;100.00
7930;BME280;4010;42.698;23.124;2023-10-19T05:00:26;118349.16;;;-140.64;100.00
7930;BME280;4010;42.698;23.124;2023-10-19T05:02:53;118349.16;;;-140.64;100.00
7930;BME280;4010;42.698;23.124;2023-10-19T05:05:20;118349.16;;;-140.64;100.00
7930;BME280;4010;42.698;23.124;2023-10-19T05:07:47;118349.16;;;-140.64;100.00
7930;BME280;4010;42.698;23.124;2023-10-19T05:10:14;118349.16;;;-140.64;100.00
7930;BME280;4010;42.698;23.124;2023-10-19T05:12:42;118349.16;;;-140.64;100.00
7930;BME280;4010;42.698;23.124;2023-10-19T05:15:09;118349.16;;;-140.64;100.00
7930;BME280;4010;42.698;23.124;2023-10-19T05:17:36;118349.16;;;-140.64;100.00
7930;BME280;4010;42.698;23.124;2023-10-19T05:20:04;118349.16;;;-140.64;100.00
7930;BME280;4010;42.698;23.124;2023-10-19T05:22:32;112297.66;;;-140.64;100.00
7930;BME280;4010;42.698;23.124;2023-10-19T05:24:59;109406.19;;;-140.64;100.00
7930;BME280;4010;42.698;23.124;2023-10-19T05:27:26;114138.94;;;-140.64;100.00
7930;BME280;4010;42.698;23.124;2023-10-19T05:29:54;118349.16;;;-140.64;100.00
7930;BME280;4010;42.698;23.124;2023-10-19T05:32:21;116771.00;;;-140.64;100.00
7930;BME280;4010;42.698;23.124;2023-10-19T05:34:49;112823.66;;;-140.64;100.00
7930;BME280;4010;42.698;23.124;2023-10-19T05:37:16;112560.66;;;-140.64;100.00
7930;BME280;4010;42.698;23.124;2023-10-19T05:39:43;109406.19;;;-140.64;100.00
7930;BME280;4010;42.698;23.124;2023-10-19T05:42:10;118349.16;;;-140.64;100.00
7930;BME280;4010;42.698;23.124;2023-10-19T05:44:37;118349.16;;;-140.64;100.00
7930;BME280;4010;42.698;23.124;2023-10-19T05:47:06;118349.16;;;-140.64;100.00
7930;BME280;4010;42.698;23.124;2023-10-19T05:49:33;118349.16;;;-140.64;100.00
7930;BME280;4010;42.698;23.124;2023-10-19T05:52:00;118349.16;;;-140.64;100.00
7930;BME280;4010;42.698;23.124;2023-10-19T05:54:28;118349.16;;;-140.64;100.00
7930;BME280;4010;42.698;23.124;2023-10-19T05:56:55;118349.16;;;-140.64;100.00
7930;BME280;4010;42.698;23.124;2023-10-19T05:59:22;118349.16;;;-140.64;100.00
7930;BME280;4010;42.698;23.124;2023-10-19T06:01:51;118349.16;;;-140.64;100.00
7930;BME280;4010;42.698;23.124;2023-10-19T06:04:19;118349.16;;;-140.64;100.00
7930;BME280;4010;42.698;23.124;2023-10-19T06:06:47;118349.16;;;-140.64;100.00
7930;BME280;4010;42.698;23.124;2023-10-19T06:09:13;118349.16;;;-140.64;100.00
7930;BME280;4010;42.698;23.124;2023-10-19T06:11:41;118349.16;;;-140.64;100.00
7930;BME280;4010;42.698;23.124;2023-10-19T06:14:08;118349.16;;;-140.64;100.00
7930;BME280;4010;42.698;23.124;2023-10-19T06:16:35;118349.16;;;-140.64;100.00
7930;BME280;4010;42.698;23.124;2023-10-19T06:19:02;118349.16;;;-140.64;100.00
7930;BME280;4010;42.698;23.124;2023-10-19T06:21:31;118349.16;;;-140.64;100.00
7930;BME280;4010;42.698;23.124;2023-10-19T06:23:58;118349.16;;;-140.64;100.00
7930;BME280;4010;42.698;23.124;2023-10-19T06:26:25;118349.16;;;-140.64;100.00
7930;BME280;4010;42.698;23.124;2023-10-19T06:28:52;118349.16;;;-140.64;100.00
7930;BME280;4010;42.698;23.124;2023-10-19T06:31:23;118349.16;;;-140.64;100.00
7930;BME280;4010;42.698;23.124;2023-10-19T06:33:51;118349.16;;;-140.64;100.00
7930;BME280;4010;42.698;23.124;2023-10-19T06:36:18;118349.16;;;-140.64;100.00
7930;BME280;4010;42.698;23.124;2023-10-19T06:38:46;118349.16;;;-140.64;100.00
7930;BME280;4010;42.698;23.124;2023-10-19T06:41:16;118349.16;;;-140.64;100.00
7930;BME280;4010;42.698;23.124;2023-10-19T06:43:43;118349.16;;;-140.64;100.00
7930;BME280;4010;42.698;23.124;2023-10-19T06:46:10;118349.16;;;-140.64;100.00
7930;BME280;4010;42.698;23.124;2023-10-19T06:48:37;118349.16;;;-140.64;100.00
7930;BME280;4010;42.698;23.124;2023-10-19T06:51:04;118349.16;;;-140.64;100.00
7930;BME280;4010;42.698;23.124;2023-10-19T06:53:31;118349.16;;;-140.64;100.00
7930;BME280;4010;42.698;23.124;2023-10-19T06:55:59;118349.16;;;-140.64;100.00
7930;BME280;4010;42.698;23.124;2023-10-19T06:58:26;118349.16;;;-140.64;100.00
7930;BME280;4010;42.698;23.124;2023-10-19T07:00:53;118349.16;;;-140.64;100.00
7930;BME280;4010;42.698;23.124;2023-10-19T07:03:25;118349.16;;;-140.64;100.00
7930;BME280;4010;42.698;23.124;2023-10-19T07:05:53;118349.16;;;-140.64;100.00
7930;BME280;4010;42.698;23.124;2023-10-19T07:08:22;118349.16;;;-140.64;100.00
7930;BME280;4010;42.698;23.124;2023-10-19T07:10:48;118349.16;;;-140.64;100.00
7930;BME280;4010;42.698;23.124;2023-10-19T07:13:17;118349.16;;;-140.64;100.00
7930;BME280;4010;42.698;23.124;2023-10-19T07:15:45;118349.16;;;-140.64;100.00
7930;BME280;4010;42.698;23.124;2023-10-19T07:18:12;118349.16;;;-140.64;100.00
7930;BME280;4010;42.698;23.124;2023-10-19T07:20:39;118349.16;;;-140.64;100.00
7930;BME280;4010;42.698;23.124;2023-10-19T07:23:08;118349.16;;;-140.64;99.93
7930;BME280;4010;42.698;23.124;2023-10-19T07:25:44;118349.16;;;-140.64;98.32
7930;BME280;4010;42.698;23.124;2023-10-19T07:28:11;118349.16;;;-140.64;99.86
7930;BME280;4010;42.698;23.124;2023-10-19T07:30:40;118349.16;;;-140.64;98.66
7930;BME280;4010;42.698;23.124;2023-10-19T07:33:07;118349.16;;;-140.64;98.74
7930;BME280;4010;42.698;23.124;2023-10-19T07:35:36;118349.16;;;-140.64;98.50
7930;BME280;4010;42.698;23.124;2023-10-19T07:40:49;118349.16;;;-140.64;99.42
7930;BME280;4010;42.698;23.124;2023-10-19T07:43:18;118349.16;;;-140.64;98.27
7930;BME280;4010;42.698;23.124;2023-10-19T07:45:46;118349.16;;;-140.64;100.00
7930;BME280;4010;42.698;23.124;2023-10-19T07:48:14;118349.16;;;-140.64;99.74
7930;BME280;4010;42.698;23.124;2023-10-19T07:50:41;118349.16;;;-140.64;100.00
7930;BME280;4010;42.698;23.124;2023-10-19T07:53:08;118349.16;;;-140.64;97.44
7930;BME280;4010;42.698;23.124;2023-10-19T07:55:36;118349.16;;;-140.64;98.22
7930;BME280;4010;42.698;23.124;2023-10-19T07:58:04;118349.16;;;-140.64;96.37
7930;BME280;4010;42.698;23.124;2023-10-19T08:00:31;118349.16;;;-140.64;96.52
7930;BME280;4010;42.698;23.124;2023-10-19T08:03:00;118349.16;;;-140.64;95.06
7930;BME280;4010;42.698;23.124;2023-10-19T08:05:28;118349.16;;;-140.64;99.19
7930;BME280;4010;42.698;23.124;2023-10-19T08:07:54;118349.16;;;-140.64;95.99
7930;BME280;4010;42.698;23.124;2023-10-19T08:10:22;118349.16;;;-140.64;95.35
7930;BME280;4010;42.698;23.124;2023-10-19T08:12:51;118349.16;;;-140.64;95.28
7930;BME280;4010;42.698;23.124;2023-10-19T08:15:19;118349.16;;;-140.64;95.97
7930;BME280;4010;42.698;23.124;2023-10-19T08:17:48;118349.16;;;-140.64;95.34
7930;BME280;4010;42.698;23.124;2023-10-19T08:20:16;118349.16;;;-140.64;93.63
7930;BME280;4010;42.698;23.124;2023-10-19T08:22:48;118349.16;;;-140.64;92.98
7930;BME280;4010;42.698;23.124;2023-10-19T08:25:15;118349.16;;;-140.64;94.82
7930;BME280;4010;42.698;23.124;2023-10-19T08:27:42;118349.16;;;-140.64;93.93
7930;BME280;4010;42.698;23.124;2023-10-19T08:30:11;118349.16;;;-140.64;91.98
7930;BME280;4010;42.698;23.124;2023-10-19T08:32:39;118349.16;;;-140.64;92.10
7930;BME280;4010;42.698;23.124;2023-10-19T08:35:07;118349.16;;;-140.64;91.45
7930;BME280;4010;42.698;23.124;2023-10-19T08:37:37;118349.16;;;-140.64;93.00
7930;BME280;4010;42.698;23.124;2023-10-19T08:40:06;118349.16;;;-140.64;92.69
7930;BME280;4010;42.698;23.124;2023-10-19T08:42:33;118349.16;;;-140.64;92.84
7930;BME280;4010;42.698;23.124;2023-10-19T08:45:02;118349.16;;;-140.64;91.79
7930;BME280;4010;42.698;23.124;2023-10-19T08:47:29;118349.16;;;-140.64;89.68
7930;BME280;4010;42.698;23.124;2023-10-19T08:49:56;118349.16;;;-140.64;89.26
7930;BME280;4010;42.698;23.124;2023-10-19T08:52:25;118349.16;;;-140.64;89.16
7930;BME280;4010;42.698;23.124;2023-10-19T08:54:54;118349.16;;;-140.64;87.32
7930;BME280;4010;42.698;23.124;2023-10-19T08:57:21;118349.16;;;-140.64;84.60
7930;BME280;4010;42.698;23.124;2023-10-19T08:59:48;118349.16;;;-140.64;85.35
7930;BME280;4010;42.698;23.124;2023-10-19T09:02:15;118349.16;;;-140.64;83.37
7930;BME280;4010;42.698;23.124;2023-10-19T09:04:43;118349.16;;;-140.64;83.30
7930;BME280;4010;42.698;23.124;2023-10-19T09:07:10;118349.16;;;-140.64;81.52
7930;BME280;4010;42.698;23.124;2023-10-19T09:09:37;118349.16;;;-140.64;80.16
7930;BME280;4010;42.698;23.124;2023-10-19T09:12:08;118349.16;;;-140.64;79.66
7930;BME280;4010;42.698;23.124;2023-10-19T09:14:36;118349.16;;;-140.64;77.86
7930;BME280;4010;42.698;23.124;2023-10-19T09:17:06;118349.16;;;-140.64;78.28
7930;BME280;4010;42.698;23.124;2023-10-19T09:19:38;118349.16;;;-140.64;76.32
7930;BME280;4010;42.698;23.124;2023-10-19T09:22:05;118349.16;;;-140.64;76.53
7930;BME280;4010;42.698;23.124;2023-10-19T09:24:42;118349.16;;;-140.64;76.56
7930;BME280;4010;42.698;23.124;2023-10-19T09:27:11;118349.16;;;-140.64;76.05
7930;BME280;4010;42.698;23.124;2023-10-19T09:29:39;118349.16;;;-140.64;77.53
7930;BME280;4010;42.698;23.124;2023-10-19T09:32:06;118349.16;;;-140.64;75.23
7930;BME280;4010;42.698;23.124;2023-10-19T09:34:34;118349.16;;;-140.64;75.52
7930;BME280;4010;42.698;23.124;2023-10-19T09:37:02;118349.16;;;-140.64;76.28
7930;BME280;4010;42.698;23.124;2023-10-19T09:39:29;118349.16;;;-140.64;76.12
7930;BME280;4010;42.698;23.124;2023-10-19T09:42:00;118349.16;;;-140.64;73.15
7930;BME280;4010;42.698;23.124;2023-10-19T09:44:33;118349.16;;;-140.64;72.85
7930;BME280;4010;42.698;23.124;2023-10-19T09:47:03;118349.16;;;-140.64;73.29
7930;BME280;4010;42.698;23.124;2023-10-19T09:49:35;118349.16;;;-140.64;74.07
7930;BME280;4010;42.698;23.124;2023-10-19T09:52:02;118349.16;;;-140.64;74.45
7930;BME280;4010;42.698;23.124;2023-10-19T09:54:36;118349.16;;;-140.64;77.76
7930;BME280;4010;42.698;23.124;2023-10-19T09:57:09;118349.16;;;-140.64;77.31
7930;BME280;4010;42.698;23.124;2023-10-19T09:59:41;118349.16;;;-140.64;75.14
7930;BME280;4010;42.698;23.124;2023-10-19T10:02:10;118349.16;;;-140.64;75.40
7930;BME280;4010;42.698;23.124;2023-10-19T10:04:39;118349.16;;;-140.64;74.53
7930;BME280;4010;42.698;23.124;2023-10-19T10:07:07;118349.16;;;-140.64;72.74
7930;BME280;4010;42.698;23.124;2023-10-19T10:09:36;118349.16;;;-140.64;74.46
7930;BME280;4010;42.698;23.124;2023-10-19T10:12:19;118349.16;;;-140.64;73.79
7930;BME280;4010;42.698;23.124;2023-10-19T10:14:58;118349.16;;;-140.64;73.98
7930;BME280;4010;42.698;23.124;2023-10-19T10:17:27;118349.16;;;-140.64;73.84
7930;BME280;4010;42.698;23.124;2023-10-19T10:19:55;118349.16;;;-140.64;73.43
7930;BME280;4010;42.698;23.124;2023-10-19T10:22:25;118349.16;;;-140.64;74.33
7930;BME280;4010;42.698;23.124;2023-10-19T10:24:55;118349.16;;;-140.64;73.54
7930;BME280;4010;42.698;23.124;2023-10-19T10:27:22;118349.16;;;-140.64;73.03
7930;BME280;4010;42.698;23.124;2023-10-19T10:29:58;118349.16;;;-140.64;71.18
7930;BME280;4010;42.698;23.124;2023-10-19T10:32:44;118349.16;;;-140.64;70.84
7930;BME280;4010;42.698;23.124;2023-10-19T10:38:13;118349.16;;;-140.64;68.68
7930;BME280;4010;42.698;23.124;2023-10-19T10:40:42;118349.16;;;-140.64;68.13
7930;BME280;4010;42.698;23.124;2023-10-19T10:43:09;118349.16;;;-140.64;67.79
7930;BME280;4010;42.698;23.124;2023-10-19T10:45:37;118349.16;;;-140.64;67.49
7930;BME280;4010;42.698;23.124;2023-10-19T10:48:04;118349.16;;;-140.64;64.86
7930;BME280;4010;42.698;23.124;2023-10-19T10:50:37;118349.16;;;-140.64;64.62
7930;BME280;4010;42.698;23.124;2023-10-19T10:53:04;118349.16;;;-140.64;64.49
7930;BME280;4010;42.698;23.124;2023-10-19T10:55:31;118349.16;;;-140.64;63.16
7930;BME280;4010;42.698;23.124;2023-10-19T10:57:58;118349.16;;;-140.64;65.82
7930;BME280;4010;42.698;23.124;2023-10-19T11:00:25;118349.16;;;-140.64;65.08
7930;BME280;4010;42.698;23.124;2023-10-19T11:03:04;118349.16;;;-140.64;63.78
7930;BME280;4010;42.698;23.124;2023-10-19T11:05:33;118349.16;;;-140.64;63.09
7930;BME280;4010;42.698;23.124;2023-10-19T11:08:06;118349.16;;;-140.64;62.51
7930;BME280;4010;42.698;23.124;2023-10-19T11:10:33;118349.16;;;-140.64;62.44
7930;BME280;4010;42.698;23.124;2023-10-19T11:13:01;118349.16;;;-140.64;63.06
7930;BME280;4010;42.698;23.124;2023-10-19T11:15:28;118349.16;;;-140.64;63.58
7930;BME280;4010;42.698;23.124;2023-10-19T11:17:54;118349.16;;;-140.64;62.48
7930;BME280;4010;42.698;23.124;2023-10-19T11:20:25;118349.16;;;-140.64;61.27
7930;BME280;4010;42.698;23.124;2023-10-19T11:22:53;118349.16;;;-140.64;61.89
7930;BME280;4010;42.698;23.124;2023-10-19T11:25:23;118349.16;;;-140.64;62.21
7930;BME280;4010;42.698;23.124;2023-10-19T11:27:51;118349.16;;;-140.64;61.93
7930;BME280;4010;42.698;23.124;2023-10-19T11:30:23;118349.16;;;-140.64;61.47
7930;BME280;4010;42.698;23.124;2023-10-19T11:32:50;118349.16;;;-140.64;60.91
7930;BME280;4010;42.698;23.124;2023-10-19T11:35:24;118349.16;;;-140.64;59.87
7930;BME280;4010;42.698;23.124;2023-10-19T11:37:52;118349.16;;;-140.64;61.27
7930;BME280;4010;42.698;23.124;2023-10-19T11:40:20;118349.16;;;-140.64;60.88
7930;BME280;4010;42.698;23.124;2023-10-19T11:42:47;118349.16;;;-140.64;61.21
7930;BME280;4010;42.698;23.124;2023-10-19T11:45:13;118349.16;;;-140.64;60.43
7930;BME280;4010;42.698;23.124;2023-10-19T11:47:41;118349.16;;;-140.64;60.20
7930;BME280;4010;42.698;23.124;2023-10-19T11:50:09;118349.16;;;-140.64;60.16
7930;BME280;4010;42.698;23.124;2023-10-19T11:52:39;118349.16;;;-140.64;58.61
7930;BME280;4010;42.698;23.124;2023-10-19T11:55:06;118349.16;;;-140.64;58.44
7930;BME280;4010;42.698;23.124;2023-10-19T11:57:34;118349.16;;;-140.64;57.79
7930;BME280;4010;42.698;23.124;2023-10-19T12:00:01;118349.16;;;-140.64;56.77
7930;BME280;4010;42.698;23.124;2023-10-19T12:02:34;118349.16;;;-140.64;57.26
7930;BME280;4010;42.698;23.124;2023-10-19T12:05:03;118349.16;;;-140.64;58.16
7930;BME280;4010;42.698;23.124;2023-10-19T12:07:30;118349.16;;;-140.64;56.44
7930;BME280;4010;42.698;23.124;2023-10-19T12:09:59;118349.16;;;-140.64;55.66
7930;BME280;4010;42.698;23.124;2023-10-19T12:12:26;118349.16;;;-140.64;55.90
7930;BME280;4010;42.698;23.124;2023-10-19T12:14:52;118349.16;;;-140.64;56.96
7930;BME280;4010;42.698;23.124;2023-10-19T12:17:20;118349.16;;;-140.64;56.62
7930;BME280;4010;42.698;23.124;2023-10-19T12:19:51;118349.16;;;-140.64;56.93
7930;BME280;4010;42.698;23.124;2023-10-19T12:22:18;118349.16;;;-140.64;57.27
7930;BME280;4010;42.698;23.124;2023-10-19T12:24:46;118349.16;;;-140.64;57.24
7930;BME280;4010;42.698;23.124;2023-10-19T12:27:15;118349.16;;;-140.64;56.14
7930;BME280;4010;42.698;23.124;2023-10-19T12:29:43;118349.16;;;-140.64;56.31
7930;BME280;4010;42.698;23.124;2023-10-19T12:32:10;118349.16;;;-140.64;56.51
7930;BME280;4010;42.698;23.124;2023-10-19T12:34:40;118349.16;;;-140.64;56.13
7930;BME280;4010;42.698;23.124;2023-10-19T12:37:07;118349.16;;;-140.64;55.90
7930;BME280;4010;42.698;23.124;2023-10-19T12:39:36;118349.16;;;-140.64;55.99
7930;BME280;4010;42.698;23.124;2023-10-19T12:42:08;118349.16;;;-140.64;55.73
7930;BME280;4010;42.698;23.124;2023-10-19T12:44:36;118349.16;;;-140.64;55.51
7930;BME280;4010;42.698;23.124;2023-10-19T12:47:07;118349.16;;;-140.64;55.50